Helmville, Montana
Current Conditions -  °F | °C
As of 2:53 PM on Tuesday 21 Oct 2014 (Local Time) from KHLN Reporting Station
Light Rain Light Rain  
Wind Chill: 40°   Ceiling: 4300
Heat Index: 45°   Visibility: 9mi
Dew Point: 39°   Wind: 9mph
Humidity: 80%   Direction: 280°W
Pressure: 29.83"   Gusts: NA
Location:  46.87°N, 112.96°W
Report Text: KHLN 212053Z 28008KT 9SM -RA OVC043 07/04 A2983 RMK AO2 SLP114 P0002 60017 T00720039 51043
Loading
Personal Weather Stations






























Interactive Weather Map
Tropical Storm Tracking
New forecast layout! Learn more

10-Day Weather Forecast

Advertisements
Track Severe Weather on mobile